Terminal Aerodrome Forecast
Issued by NWS Brownsville, TX

Home | Current Version | Previous Version | Text Only | Print | Product List | Glossary On
Versions: 1 2 3 4 5 6 7 8 9 10 11 12 13 14 15 16 17 18 19 20 21 22 23 24 25 26
000
FTUS44 KBRO 211500 AAA
TAFBRO
TAF AMD
KBRO 211503Z 2115/2212 35006KT 5SM -DZ BR FEW006 OVC015
      TEMPO 2115/2117 BKN006
     FM211700 02006KT P6SM OVC020
     FM212200 06006KT P6SM OVC035
     FM220300 09003KT P6SM OVC030
     FM220500 16003KT 6SM BR OVC015=

USA.gov is the U.S. government's official web portal to all federal, state and local government web resources and services.